sensor_id;sensor_type;location;lat;lon;timestamp;P1;durP1;ratioP1;P2;durP2;ratioP2
55879;SDS011;41802;51.564;-1.838;2023-07-16T00:00:49;15.37;;;2.70;;
55879;SDS011;41802;51.564;-1.838;2023-07-16T00:03:17;11.98;;;2.45;;
55879;SDS011;41802;51.564;-1.838;2023-07-16T00:05:45;7.93;;;1.77;;
55879;SDS011;41802;51.564;-1.838;2023-07-16T00:08:12;9.75;;;2.15;;
55879;SDS011;41802;51.564;-1.838;2023-07-16T00:10:42;11.60;;;2.63;;
55879;SDS011;41802;51.564;-1.838;2023-07-16T00:13:09;9.83;;;2.00;;
55879;SDS011;41802;51.564;-1.838;2023-07-16T00:15:37;10.10;;;2.47;;
55879;SDS011;41802;51.564;-1.838;2023-07-16T00:18:05;10.63;;;2.53;;
55879;SDS011;41802;51.564;-1.838;2023-07-16T00:20:32;14.65;;;3.42;;
55879;SDS011;41802;51.564;-1.838;2023-07-16T00:23:00;11.98;;;2.47;;
55879;SDS011;41802;51.564;-1.838;2023-07-16T00:25:28;13.60;;;2.87;;
55879;SDS011;41802;51.564;-1.838;2023-07-16T00:28:15;13.07;;;3.72;;
55879;SDS011;41802;51.564;-1.838;2023-07-16T00:30:46;10.88;;;2.25;;
55879;SDS011;41802;51.564;-1.838;2023-07-16T00:33:14;13.07;;;2.40;;
55879;SDS011;41802;51.564;-1.838;2023-07-16T00:35:46;16.42;;;3.22;;
55879;SDS011;41802;51.564;-1.838;2023-07-16T00:38:14;14.87;;;3.10;;
55879;SDS011;41802;51.564;-1.838;2023-07-16T00:40:41;12.35;;;2.53;;
55879;SDS011;41802;51.564;-1.838;2023-07-16T00:43:09;10.27;;;2.38;;
55879;SDS011;41802;51.564;-1.838;2023-07-16T00:45:39;10.88;;;2.65;;
55879;SDS011;41802;51.564;-1.838;2023-07-16T00:48:07;16.20;;;3.40;;
55879;SDS011;41802;51.564;-1.838;2023-07-16T00:50:35;15.67;;;3.43;;
55879;SDS011;41802;51.564;-1.838;2023-07-16T00:53:05;9.02;;;2.67;;
55879;SDS011;41802;51.564;-1.838;2023-07-16T00:55:51;18.92;;;2.67;;
55879;SDS011;41802;51.564;-1.838;2023-07-16T00:58:19;16.20;;;3.33;;
55879;SDS011;41802;51.564;-1.838;2023-07-16T01:00:48;17.73;;;3.88;;
55879;SDS011;41802;51.564;-1.838;2023-07-16T01:03:16;25.53;;;3.40;;
55879;SDS011;41802;51.564;-1.838;2023-07-16T01:05:45;14.80;;;3.22;;
55879;SDS011;41802;51.564;-1.838;2023-07-16T01:08:16;13.60;;;3.40;;
55879;SDS011;41802;51.564;-1.838;2023-07-16T01:10:46;17.88;;;3.50;;
55879;SDS011;41802;51.564;-1.838;2023-07-16T01:13:14;18.45;;;3.17;;
55879;SDS011;41802;51.564;-1.838;2023-07-16T01:15:42;18.83;;;3.23;;
55879;SDS011;41802;51.564;-1.838;2023-07-16T01:18:16;19.95;;;4.07;;
55879;SDS011;41802;51.564;-1.838;2023-07-16T01:20:44;15.70;;;3.47;;
55879;SDS011;41802;51.564;-1.838;2023-07-16T01:23:17;16.10;;;4.68;;
55879;SDS011;41802;51.564;-1.838;2023-07-16T01:25:56;18.92;;;3.38;;
55879;SDS011;41802;51.564;-1.838;2023-07-16T01:28:44;23.00;;;4.30;;
55879;SDS011;41802;51.564;-1.838;2023-07-16T01:31:18;20.52;;;4.15;;
55879;SDS011;41802;51.564;-1.838;2023-07-16T01:33:48;24.20;;;4.15;;
55879;SDS011;41802;51.564;-1.838;2023-07-16T01:36:16;16.20;;;4.03;;
55879;SDS011;41802;51.564;-1.838;2023-07-16T01:38:45;28.95;;;4.65;;
55879;SDS011;41802;51.564;-1.838;2023-07-16T01:41:13;15.10;;;3.20;;
55879;SDS011;41802;51.564;-1.838;2023-07-16T01:43:40;21.67;;;4.57;;
55879;SDS011;41802;51.564;-1.838;2023-07-16T01:46:08;24.65;;;4.20;;
55879;SDS011;41802;51.564;-1.838;2023-07-16T01:48:38;15.85;;;3.35;;
55879;SDS011;41802;51.564;-1.838;2023-07-16T01:51:05;18.23;;;3.45;;
55879;SDS011;41802;51.564;-1.838;2023-07-16T01:53:33;18.20;;;3.70;;
55879;SDS011;41802;51.564;-1.838;2023-07-16T01:56:01;17.10;;;3.45;;
55879;SDS011;41802;51.564;-1.838;2023-07-16T01:58:29;17.98;;;2.80;;
55879;SDS011;41802;51.564;-1.838;2023-07-16T02:00:56;18.40;;;3.35;;
55879;SDS011;41802;51.564;-1.838;2023-07-16T02:03:24;19.42;;;3.17;;
55879;SDS011;41802;51.564;-1.838;2023-07-16T02:05:53;20.83;;;3.17;;
55879;SDS011;41802;51.564;-1.838;2023-07-16T02:08:21;24.75;;;4.30;;
55879;SDS011;41802;51.564;-1.838;2023-07-16T02:10:49;22.35;;;3.30;;
55879;SDS011;41802;51.564;-1.838;2023-07-16T02:13:16;19.00;;;3.63;;
55879;SDS011;41802;51.564;-1.838;2023-07-16T02:15:46;19.13;;;3.75;;
55879;SDS011;41802;51.564;-1.838;2023-07-16T02:18:14;20.87;;;3.20;;
55879;SDS011;41802;51.564;-1.838;2023-07-16T02:20:42;16.77;;;3.05;;
55879;SDS011;41802;51.564;-1.838;2023-07-16T02:23:11;15.15;;;3.67;;
55879;SDS011;41802;51.564;-1.838;2023-07-16T02:25:39;25.70;;;3.95;;
55879;SDS011;41802;51.564;-1.838;2023-07-16T02:28:07;19.83;;;3.15;;
55879;SDS011;41802;51.564;-1.838;2023-07-16T02:30:34;23.87;;;4.23;;
55879;SDS011;41802;51.564;-1.838;2023-07-16T02:33:02;16.33;;;3.58;;
55879;SDS011;41802;51.564;-1.838;2023-07-16T02:35:30;19.38;;;2.95;;
55879;SDS011;41802;51.564;-1.838;2023-07-16T02:37:58;19.00;;;2.85;;
55879;SDS011;41802;51.564;-1.838;2023-07-16T02:40:27;17.23;;;3.83;;
55879;SDS011;41802;51.564;-1.838;2023-07-16T02:42:55;21.53;;;4.30;;
55879;SDS011;41802;51.564;-1.838;2023-07-16T02:45:22;16.30;;;2.60;;
55879;SDS011;41802;51.564;-1.838;2023-07-16T02:47:50;16.83;;;2.92;;
55879;SDS011;41802;51.564;-1.838;2023-07-16T02:50:18;25.30;;;4.10;;
55879;SDS011;41802;51.564;-1.838;2023-07-16T02:52:45;20.85;;;3.28;;
55879;SDS011;41802;51.564;-1.838;2023-07-16T02:55:13;20.30;;;3.30;;
55879;SDS011;41802;51.564;-1.838;2023-07-16T02:57:42;14.88;;;3.67;;
55879;SDS011;41802;51.564;-1.838;2023-07-16T03:00:10;20.27;;;2.70;;
55879;SDS011;41802;51.564;-1.838;2023-07-16T03:02:38;15.68;;;2.85;;
55879;SDS011;41802;51.564;-1.838;2023-07-16T03:05:07;20.05;;;3.63;;
55879;SDS011;41802;51.564;-1.838;2023-07-16T03:07:36;19.83;;;4.03;;
55879;SDS011;41802;51.564;-1.838;2023-07-16T03:10:04;17.48;;;2.90;;
55879;SDS011;41802;51.564;-1.838;2023-07-16T03:12:32;17.67;;;2.53;;
55879;SDS011;41802;51.564;-1.838;2023-07-16T03:15:01;20.90;;;3.75;;
55879;SDS011;41802;51.564;-1.838;2023-07-16T03:17:29;16.45;;;2.85;;
55879;SDS011;41802;51.564;-1.838;2023-07-16T03:19:57;19.50;;;2.27;;
55879;SDS011;41802;51.564;-1.838;2023-07-16T03:22:25;16.52;;;3.40;;
55879;SDS011;41802;51.564;-1.838;2023-07-16T03:24:52;16.90;;;3.13;;
55879;SDS011;41802;51.564;-1.838;2023-07-16T03:27:20;17.05;;;2.75;;
55879;SDS011;41802;51.564;-1.838;2023-07-16T03:29:50;21.05;;;3.13;;
55879;SDS011;41802;51.564;-1.838;2023-07-16T03:32:19;15.90;;;3.10;;
55879;SDS011;41802;51.564;-1.838;2023-07-16T03:34:47;16.98;;;2.60;;
55879;SDS011;41802;51.564;-1.838;2023-07-16T03:37:14;14.00;;;2.60;;
55879;SDS011;41802;51.564;-1.838;2023-07-16T03:39:42;18.45;;;2.55;;
55879;SDS011;41802;51.564;-1.838;2023-07-16T03:42:10;17.58;;;2.58;;
55879;SDS011;41802;51.564;-1.838;2023-07-16T03:44:37;16.53;;;2.47;;
55879;SDS011;41802;51.564;-1.838;2023-07-16T03:47:05;14.57;;;3.10;;
55879;SDS011;41802;51.564;-1.838;2023-07-16T03:49:34;18.35;;;3.15;;
55879;SDS011;41802;51.564;-1.838;2023-07-16T03:52:02;13.75;;;2.20;;
55879;SDS011;41802;51.564;-1.838;2023-07-16T03:54:30;16.80;;;3.22;;
55879;SDS011;41802;51.564;-1.838;2023-07-16T03:56:57;19.90;;;3.20;;
55879;SDS011;41802;51.564;-1.838;2023-07-16T03:59:28;16.92;;;3.30;;
55879;SDS011;41802;51.564;-1.838;2023-07-16T04:01:56;21.95;;;3.03;;
55879;SDS011;41802;51.564;-1.838;2023-07-16T04:04:24;18.65;;;3.05;;
55879;SDS011;41802;51.564;-1.838;2023-07-16T04:06:53;19.02;;;2.65;;
55879;SDS011;41802;51.564;-1.838;2023-07-16T04:09:22;11.87;;;2.37;;
55879;SDS011;41802;51.564;-1.838;2023-07-16T04:11:50;23.40;;;3.08;;
55879;SDS011;41802;51.564;-1.838;2023-07-16T04:14:17;12.93;;;2.25;;
55879;SDS011;41802;51.564;-1.838;2023-07-16T04:16:45;20.80;;;2.85;;
55879;SDS011;41802;51.564;-1.838;2023-07-16T04:19:13;18.75;;;2.60;;
55879;SDS011;41802;51.564;-1.838;2023-07-16T04:21:41;14.20;;;2.53;;
55879;SDS011;41802;51.564;-1.838;2023-07-16T04:24:10;12.00;;;2.65;;
55879;SDS011;41802;51.564;-1.838;2023-07-16T04:26:37;15.77;;;2.58;;
55879;SDS011;41802;51.564;-1.838;2023-07-16T04:29:05;16.20;;;2.63;;
55879;SDS011;41802;51.564;-1.838;2023-07-16T04:31:33;12.65;;;2.22;;
55879;SDS011;41802;51.564;-1.838;2023-07-16T04:34:01;18.90;;;3.07;;
55879;SDS011;41802;51.564;-1.838;2023-07-16T04:36:30;16.88;;;2.20;;
55879;SDS011;41802;51.564;-1.838;2023-07-16T04:38:57;15.02;;;2.75;;
55879;SDS011;41802;51.564;-1.838;2023-07-16T04:41:27;21.23;;;2.42;;
55879;SDS011;41802;51.564;-1.838;2023-07-16T04:43:55;14.05;;;2.55;;
55879;SDS011;41802;51.564;-1.838;2023-07-16T04:46:23;16.97;;;2.53;;
55879;SDS011;41802;51.564;-1.838;2023-07-16T04:48:51;15.93;;;2.28;;
55879;SDS011;41802;51.564;-1.838;2023-07-16T04:51:19;17.58;;;2.25;;
55879;SDS011;41802;51.564;-1.838;2023-07-16T04:53:50;16.92;;;2.85;;
55879;SDS011;41802;51.564;-1.838;2023-07-16T04:56:18;19.25;;;2.55;;
55879;SDS011;41802;51.564;-1.838;2023-07-16T04:58:47;16.90;;;2.73;;
55879;SDS011;41802;51.564;-1.838;2023-07-16T05:01:15;15.90;;;2.70;;
55879;SDS011;41802;51.564;-1.838;2023-07-16T05:03:43;13.63;;;2.80;;
55879;SDS011;41802;51.564;-1.838;2023-07-16T05:06:10;12.40;;;3.05;;
55879;SDS011;41802;51.564;-1.838;2023-07-16T05:08:38;20.48;;;3.47;;
55879;SDS011;41802;51.564;-1.838;2023-07-16T05:11:06;22.70;;;2.57;;
55879;SDS011;41802;51.564;-1.838;2023-07-16T05:13:33;15.52;;;2.35;;
55879;SDS011;41802;51.564;-1.838;2023-07-16T05:16:03;15.15;;;2.22;;
55879;SDS011;41802;51.564;-1.838;2023-07-16T05:18:37;14.73;;;2.55;;
55879;SDS011;41802;51.564;-1.838;2023-07-16T05:21:05;16.02;;;2.08;;
55879;SDS011;41802;51.564;-1.838;2023-07-16T05:23:32;13.70;;;2.07;;
55879;SDS011;41802;51.564;-1.838;2023-07-16T05:26:00;15.45;;;2.28;;
55879;SDS011;41802;51.564;-1.838;2023-07-16T05:28:28;19.13;;;2.97;;
55879;SDS011;41802;51.564;-1.838;2023-07-16T05:30:59;15.63;;;1.80;;
55879;SDS011;41802;51.564;-1.838;2023-07-16T05:33:38;17.05;;;2.15;;
55879;SDS011;41802;51.564;-1.838;2023-07-16T05:36:08;17.80;;;2.50;;
55879;SDS011;41802;51.564;-1.838;2023-07-16T05:38:35;16.38;;;2.13;;
55879;SDS011;41802;51.564;-1.838;2023-07-16T05:41:03;14.70;;;3.10;;
55879;SDS011;41802;51.564;-1.838;2023-07-16T05:51:53;8.88;;;1.90;;
55879;SDS011;41802;51.564;-1.838;2023-07-16T05:54:22;16.45;;;2.50;;
55879;SDS011;41802;51.564;-1.838;2023-07-16T05:56:50;14.20;;;2.00;;
55879;SDS011;41802;51.564;-1.838;2023-07-16T05:59:18;19.27;;;2.55;;
55879;SDS011;41802;51.564;-1.838;2023-07-16T06:01:45;12.47;;;1.87;;
55879;SDS011;41802;51.564;-1.838;2023-07-16T06:04:15;11.65;;;2.10;;
55879;SDS011;41802;51.564;-1.838;2023-07-16T06:06:43;16.17;;;2.30;;
55879;SDS011;41802;51.564;-1.838;2023-07-16T06:09:13;11.77;;;1.90;;
55879;SDS011;41802;51.564;-1.838;2023-07-16T06:11:40;14.48;;;2.75;;
55879;SDS011;41802;51.564;-1.838;2023-07-16T06:14:09;13.10;;;2.30;;
55879;SDS011;41802;51.564;-1.838;2023-07-16T06:16:37;11.45;;;2.10;;
55879;SDS011;41802;51.564;-1.838;2023-07-16T06:19:07;12.27;;;1.83;;
55879;SDS011;41802;51.564;-1.838;2023-07-16T06:21:34;15.20;;;1.60;;
55879;SDS011;41802;51.564;-1.838;2023-07-16T06:24:02;11.75;;;2.53;;
55879;SDS011;41802;51.564;-1.838;2023-07-16T06:26:31;10.97;;;2.30;;
55879;SDS011;41802;51.564;-1.838;2023-07-16T06:28:59;8.15;;;1.55;;
55879;SDS011;41802;51.564;-1.838;2023-07-16T06:31:27;11.20;;;1.85;;
55879;SDS011;41802;51.564;-1.838;2023-07-16T06:33:57;16.95;;;2.20;;
55879;SDS011;41802;51.564;-1.838;2023-07-16T06:36:25;19.05;;;1.85;;
55879;SDS011;41802;51.564;-1.838;2023-07-16T06:38:52;13.27;;;2.07;;
55879;SDS011;41802;51.564;-1.838;2023-07-16T06:41:20;11.60;;;2.28;;
55879;SDS011;41802;51.564;-1.838;2023-07-16T06:43:49;13.90;;;1.88;;
55879;SDS011;41802;51.564;-1.838;2023-07-16T06:46:17;13.32;;;1.80;;
55879;SDS011;41802;51.564;-1.838;2023-07-16T06:48:45;15.60;;;2.25;;
55879;SDS011;41802;51.564;-1.838;2023-07-16T06:51:13;18.33;;;2.70;;
55879;SDS011;41802;51.564;-1.838;2023-07-16T06:53:41;12.68;;;2.08;;
55879;SDS011;41802;51.564;-1.838;2023-07-16T06:56:10;12.07;;;2.30;;
55879;SDS011;41802;51.564;-1.838;2023-07-16T06:58:39;16.85;;;2.10;;
55879;SDS011;41802;51.564;-1.838;2023-07-16T07:01:08;11.05;;;1.70;;
55879;SDS011;41802;51.564;-1.838;2023-07-16T07:03:36;15.23;;;1.93;;
55879;SDS011;41802;51.564;-1.838;2023-07-16T07:06:05;33.15;;;3.63;;
55879;SDS011;41802;51.564;-1.838;2023-07-16T07:08:32;15.00;;;2.47;;
55879;SDS011;41802;51.564;-1.838;2023-07-16T07:11:00;12.15;;;2.63;;
55879;SDS011;41802;51.564;-1.838;2023-07-16T07:13:28;17.27;;;2.80;;
55879;SDS011;41802;51.564;-1.838;2023-07-16T07:15:56;15.50;;;2.33;;
55879;SDS011;41802;51.564;-1.838;2023-07-16T07:18:25;17.00;;;2.08;;
55879;SDS011;41802;51.564;-1.838;2023-07-16T07:20:54;12.93;;;2.20;;
55879;SDS011;41802;51.564;-1.838;2023-07-16T07:23:21;17.13;;;3.03;;
55879;SDS011;41802;51.564;-1.838;2023-07-16T07:25:49;12.85;;;1.92;;
55879;SDS011;41802;51.564;-1.838;2023-07-16T07:28:18;14.70;;;2.30;;
55879;SDS011;41802;51.564;-1.838;2023-07-16T07:30:45;12.30;;;1.90;;
55879;SDS011;41802;51.564;-1.838;2023-07-16T07:33:13;12.80;;;2.20;;
55879;SDS011;41802;51.564;-1.838;2023-07-16T07:35:42;13.07;;;1.77;;
55879;SDS011;41802;51.564;-1.838;2023-07-16T07:38:10;15.80;;;2.72;;
55879;SDS011;41802;51.564;-1.838;2023-07-16T07:40:38;10.25;;;1.98;;
55879;SDS011;41802;51.564;-1.838;2023-07-16T07:43:05;12.95;;;2.28;;
55879;SDS011;41802;51.564;-1.838;2023-07-16T07:45:34;12.03;;;2.23;;
55879;SDS011;41802;51.564;-1.838;2023-07-16T07:48:02;16.13;;;2.50;;
55879;SDS011;41802;51.564;-1.838;2023-07-16T07:50:30;11.98;;;2.47;;
55879;SDS011;41802;51.564;-1.838;2023-07-16T07:52:59;14.82;;;2.20;;
55879;SDS011;41802;51.564;-1.838;2023-07-16T07:55:27;13.85;;;2.28;;
55879;SDS011;41802;51.564;-1.838;2023-07-16T07:57:55;9.53;;;1.77;;
55879;SDS011;41802;51.564;-1.838;2023-07-16T08:00:23;10.95;;;2.35;;
55879;SDS011;41802;51.564;-1.838;2023-07-16T08:02:50;13.07;;;1.90;;
55879;SDS011;41802;51.564;-1.838;2023-07-16T08:05:18;16.52;;;2.20;;
55879;SDS011;41802;51.564;-1.838;2023-07-16T08:07:47;10.93;;;2.00;;
55879;SDS011;41802;51.564;-1.838;2023-07-16T08:10:16;11.43;;;1.83;;
55879;SDS011;41802;51.564;-1.838;2023-07-16T08:12:43;8.20;;;1.60;;
55879;SDS011;41802;51.564;-1.838;2023-07-16T08:15:11;15.82;;;2.22;;
55879;SDS011;41802;51.564;-1.838;2023-07-16T08:17:41;16.58;;;1.77;;
55879;SDS011;41802;51.564;-1.838;2023-07-16T08:20:09;10.32;;;1.98;;
55879;SDS011;41802;51.564;-1.838;2023-07-16T08:22:37;8.80;;;1.63;;
55879;SDS011;41802;51.564;-1.838;2023-07-16T08:25:06;13.18;;;2.00;;
55879;SDS011;41802;51.564;-1.838;2023-07-16T08:27:35;12.43;;;3.17;;
55879;SDS011;41802;51.564;-1.838;2023-07-16T08:30:03;11.57;;;2.60;;
55879;SDS011;41802;51.564;-1.838;2023-07-16T08:32:31;15.20;;;2.30;;
55879;SDS011;41802;51.564;-1.838;2023-07-16T08:34:59;12.07;;;1.93;;
55879;SDS011;41802;51.564;-1.838;2023-07-16T08:37:27;14.02;;;1.90;;
55879;SDS011;41802;51.564;-1.838;2023-07-16T08:39:58;11.45;;;1.63;;
55879;SDS011;41802;51.564;-1.838;2023-07-16T08:42:27;13.48;;;1.77;;
55879;SDS011;41802;51.564;-1.838;2023-07-16T08:44:56;21.63;;;2.67;;
55879;SDS011;41802;51.564;-1.838;2023-07-16T08:47:24;12.53;;;1.70;;
55879;SDS011;41802;51.564;-1.838;2023-07-16T08:49:54;23.67;;;2.42;;
55879;SDS011;41802;51.564;-1.838;2023-07-16T08:52:22;9.15;;;1.90;;
55879;SDS011;41802;51.564;-1.838;2023-07-16T08:54:49;9.13;;;1.73;;
55879;SDS011;41802;51.564;-1.838;2023-07-16T08:57:17;12.02;;;2.10;;
55879;SDS011;41802;51.564;-1.838;2023-07-16T08:59:46;9.77;;;1.17;;
55879;SDS011;41802;51.564;-1.838;2023-07-16T09:02:17;10.15;;;1.40;;
55879;SDS011;41802;51.564;-1.838;2023-07-16T09:04:45;10.40;;;1.85;;
55879;SDS011;41802;51.564;-1.838;2023-07-16T09:07:13;13.82;;;1.80;;
55879;SDS011;41802;51.564;-1.838;2023-07-16T09:09:41;10.60;;;1.55;;
55879;SDS011;41802;51.564;-1.838;2023-07-16T09:12:11;11.80;;;2.10;;
55879;SDS011;41802;51.564;-1.838;2023-07-16T09:14:40;13.23;;;1.60;;
55879;SDS011;41802;51.564;-1.838;2023-07-16T09:17:07;11.30;;;1.65;;
55879;SDS011;41802;51.564;-1.838;2023-07-16T09:19:36;9.43;;;1.88;;
55879;SDS011;41802;51.564;-1.838;2023-07-16T09:22:04;10.13;;;2.00;;
55879;SDS011;41802;51.564;-1.838;2023-07-16T09:24:34;11.07;;;2.28;;
55879;SDS011;41802;51.564;-1.838;2023-07-16T09:27:05;11.38;;;1.90;;
55879;SDS011;41802;51.564;-1.838;2023-07-16T09:29:37;6.72;;;1.00;;
55879;SDS011;41802;51.564;-1.838;2023-07-16T09:32:05;12.30;;;1.43;;
55879;SDS011;41802;51.564;-1.838;2023-07-16T09:34:33;8.80;;;1.30;;
55879;SDS011;41802;51.564;-1.838;2023-07-16T09:37:03;11.65;;;1.92;;
55879;SDS011;41802;51.564;-1.838;2023-07-16T09:39:32;6.88;;;1.40;;
55879;SDS011;41802;51.564;-1.838;2023-07-16T09:41:59;9.70;;;1.77;;
55879;SDS011;41802;51.564;-1.838;2023-07-16T09:44:29;8.07;;;1.87;;
55879;SDS011;41802;51.564;-1.838;2023-07-16T09:46:57;11.50;;;1.42;;
55879;SDS011;41802;51.564;-1.838;2023-07-16T09:49:26;10.88;;;1.45;;
55879;SDS011;41802;51.564;-1.838;2023-07-16T09:51:57;10.85;;;1.60;;
55879;SDS011;41802;51.564;-1.838;2023-07-16T09:54:26;11.18;;;1.38;;
55879;SDS011;41802;51.564;-1.838;2023-07-16T09:56:57;9.93;;;2.43;;
55879;SDS011;41802;51.564;-1.838;2023-07-16T09:59:27;10.88;;;1.92;;
55879;SDS011;41802;51.564;-1.838;2023-07-16T10:01:56;9.32;;;1.73;;
55879;SDS011;41802;51.564;-1.838;2023-07-16T10:04:36;10.23;;;1.95;;
55879;SDS011;41802;51.564;-1.838;2023-07-16T10:07:23;11.38;;;1.95;;
55879;SDS011;41802;51.564;-1.838;2023-07-16T10:09:54;9.83;;;1.80;;
55879;SDS011;41802;51.564;-1.838;2023-07-16T10:12:24;9.50;;;1.10;;
55879;SDS011;41802;51.564;-1.838;2023-07-16T10:14:54;6.05;;;1.10;;
55879;SDS011;41802;51.564;-1.838;2023-07-16T10:17:23;7.30;;;1.70;;
55879;SDS011;41802;51.564;-1.838;2023-07-16T10:19:56;8.43;;;2.47;;
55879;SDS011;41802;51.564;-1.838;2023-07-16T10:22:31;8.20;;;1.00;;
55879;SDS011;41802;51.564;-1.838;2023-07-16T10:25:00;8.27;;;1.15;;
55879;SDS011;41802;51.564;-1.838;2023-07-16T10:27:29;8.48;;;1.52;;
55879;SDS011;41802;51.564;-1.838;2023-07-16T10:29:58;7.00;;;1.17;;
55879;SDS011;41802;51.564;-1.838;2023-07-16T10:32:27;4.80;;;0.95;;
55879;SDS011;41802;51.564;-1.838;2023-07-16T10:34:55;8.13;;;0.93;;
55879;SDS011;41802;51.564;-1.838;2023-07-16T10:37:23;5.85;;;1.00;;
55879;SDS011;41802;51.564;-1.838;2023-07-16T10:39:53;5.50;;;0.93;;
55879;SDS011;41802;51.564;-1.838;2023-07-16T10:42:22;5.30;;;0.82;;
55879;SDS011;41802;51.564;-1.838;2023-07-16T10:44:57;8.18;;;1.95;;
55879;SDS011;41802;51.564;-1.838;2023-07-16T10:47:29;8.13;;;0.90;;
55879;SDS011;41802;51.564;-1.838;2023-07-16T10:49:57;6.85;;;1.08;;
55879;SDS011;41802;51.564;-1.838;2023-07-16T10:52:25;6.43;;;1.33;;
55879;SDS011;41802;51.564;-1.838;2023-07-16T10:54:54;5.25;;;0.70;;
55879;SDS011;41802;51.564;-1.838;2023-07-16T10:57:25;8.40;;;1.35;;
55879;SDS011;41802;51.564;-1.838;2023-07-16T10:59:54;10.90;;;1.73;;
55879;SDS011;41802;51.564;-1.838;2023-07-16T11:02:23;6.45;;;0.73;;
55879;SDS011;41802;51.564;-1.838;2023-07-16T11:04:51;5.75;;;0.95;;
55879;SDS011;41802;51.564;-1.838;2023-07-16T11:07:20;5.68;;;0.70;;
55879;SDS011;41802;51.564;-1.838;2023-07-16T11:09:49;7.45;;;0.95;;
55879;SDS011;41802;51.564;-1.838;2023-07-16T11:12:18;3.30;;;0.60;;
55879;SDS011;41802;51.564;-1.838;2023-07-16T11:14:48;4.07;;;0.60;;
55879;SDS011;41802;51.564;-1.838;2023-07-16T11:17:16;4.32;;;0.60;;
55879;SDS011;41802;51.564;-1.838;2023-07-16T11:19:45;3.92;;;0.75;;
55879;SDS011;41802;51.564;-1.838;2023-07-16T11:22:13;5.03;;;0.77;;
55879;SDS011;41802;51.564;-1.838;2023-07-16T11:24:42;6.10;;;0.70;;
55879;SDS011;41802;51.564;-1.838;2023-07-16T11:27:13;4.82;;;0.75;;
55879;SDS011;41802;51.564;-1.838;2023-07-16T11:29:44;5.13;;;0.88;;
55879;SDS011;41802;51.564;-1.838;2023-07-16T11:32:13;5.63;;;1.10;;
55879;SDS011;41802;51.564;-1.838;2023-07-16T11:34:53;3.47;;;0.70;;
55879;SDS011;41802;51.564;-1.838;2023-07-16T11:37:21;5.10;;;0.80;;
55879;SDS011;41802;51.564;-1.838;2023-07-16T11:39:51;3.45;;;0.50;;
55879;SDS011;41802;51.564;-1.838;2023-07-16T11:42:27;6.00;;;0.93;;
55879;SDS011;41802;51.564;-1.838;2023-07-16T11:44:55;4.88;;;1.05;;
55879;SDS011;41802;51.564;-1.838;2023-07-16T11:47:25;5.25;;;0.80;;
55879;SDS011;41802;51.564;-1.838;2023-07-16T11:49:53;5.80;;;0.90;;
55879;SDS011;41802;51.564;-1.838;2023-07-16T11:52:21;5.95;;;1.10;;
55879;SDS011;41802;51.564;-1.838;2023-07-16T11:54:48;6.55;;;1.23;;
55879;SDS011;41802;51.564;-1.838;2023-07-16T11:57:16;4.20;;;0.75;;
55879;SDS011;41802;51.564;-1.838;2023-07-16T11:59:44;5.22;;;0.70;;
55879;SDS011;41802;51.564;-1.838;2023-07-16T12:02:12;6.80;;;0.77;;
55879;SDS011;41802;51.564;-1.838;2023-07-16T12:04:41;6.00;;;0.80;;
55879;SDS011;41802;51.564;-1.838;2023-07-16T12:07:09;5.25;;;0.90;;
55879;SDS011;41802;51.564;-1.838;2023-07-16T12:09:36;5.68;;;0.90;;
55879;SDS011;41802;51.564;-1.838;2023-07-16T12:12:06;8.30;;;1.15;;
55879;SDS011;41802;51.564;-1.838;2023-07-16T12:14:34;4.93;;;0.77;;
55879;SDS011;41802;51.564;-1.838;2023-07-16T12:17:03;4.95;;;1.10;;
55879;SDS011;41802;51.564;-1.838;2023-07-16T12:19:31;7.13;;;1.05;;
55879;SDS011;41802;51.564;-1.838;2023-07-16T12:22:00;6.15;;;0.80;;
55879;SDS011;41802;51.564;-1.838;2023-07-16T12:24:27;7.45;;;1.23;;
55879;SDS011;41802;51.564;-1.838;2023-07-16T12:26:55;5.07;;;0.83;;
55879;SDS011;41802;51.564;-1.838;2023-07-16T12:29:23;8.82;;;1.10;;
55879;SDS011;41802;51.564;-1.838;2023-07-16T12:31:51;4.28;;;0.93;;
55879;SDS011;41802;51.564;-1.838;2023-07-16T12:34:23;7.28;;;0.98;;
55879;SDS011;41802;51.564;-1.838;2023-07-16T12:36:50;8.13;;;1.20;;
55879;SDS011;41802;51.564;-1.838;2023-07-16T12:39:21;6.50;;;1.07;;
55879;SDS011;41802;51.564;-1.838;2023-07-16T12:41:49;8.65;;;1.05;;
55879;SDS011;41802;51.564;-1.838;2023-07-16T12:44:16;7.25;;;0.90;;
55879;SDS011;41802;51.564;-1.838;2023-07-16T12:46:44;7.68;;;1.00;;
55879;SDS011;41802;51.564;-1.838;2023-07-16T12:49:12;6.93;;;1.52;;
55879;SDS011;41802;51.564;-1.838;2023-07-16T12:51:40;11.60;;;1.23;;
55879;SDS011;41802;51.564;-1.838;2023-07-16T12:54:07;6.00;;;0.90;;
55879;SDS011;41802;51.564;-1.838;2023-07-16T12:56:36;5.05;;;1.40;;
55879;SDS011;41802;51.564;-1.838;2023-07-16T12:59:05;7.03;;;0.88;;
55879;SDS011;41802;51.564;-1.838;2023-07-16T13:01:33;9.68;;;0.82;;
55879;SDS011;41802;51.564;-1.838;2023-07-16T13:04:01;8.13;;;1.07;;
55879;SDS011;41802;51.564;-1.838;2023-07-16T13:06:28;8.20;;;1.15;;
55879;SDS011;41802;51.564;-1.838;2023-07-16T13:08:56;5.30;;;1.52;;
55879;SDS011;41802;51.564;-1.838;2023-07-16T13:11:24;8.52;;;1.55;;
55879;SDS011;41802;51.564;-1.838;2023-07-16T13:13:53;12.70;;;1.63;;
55879;SDS011;41802;51.564;-1.838;2023-07-16T13:16:20;7.37;;;1.33;;
55879;SDS011;41802;51.564;-1.838;2023-07-16T13:18:48;8.07;;;1.42;;
55879;SDS011;41802;51.564;-1.838;2023-07-16T13:21:16;5.97;;;1.40;;
55879;SDS011;41802;51.564;-1.838;2023-07-16T13:23:43;6.88;;;1.27;;
55879;SDS011;41802;51.564;-1.838;2023-07-16T13:26:11;8.05;;;2.58;;
55879;SDS011;41802;51.564;-1.838;2023-07-16T13:28:40;9.77;;;1.83;;
55879;SDS011;41802;51.564;-1.838;2023-07-16T13:31:10;13.63;;;2.25;;
55879;SDS011;41802;51.564;-1.838;2023-07-16T13:33:38;7.93;;;1.48;;
55879;SDS011;41802;51.564;-1.838;2023-07-16T13:36:06;10.90;;;1.27;;
55879;SDS011;41802;51.564;-1.838;2023-07-16T13:38:33;7.10;;;1.20;;
55879;SDS011;41802;51.564;-1.838;2023-07-16T13:41:01;5.70;;;0.97;;
55879;SDS011;41802;51.564;-1.838;2023-07-16T13:43:29;6.93;;;1.00;;
55879;SDS011;41802;51.564;-1.838;2023-07-16T13:45:56;5.88;;;1.48;;
55879;SDS011;41802;51.564;-1.838;2023-07-16T13:48:25;7.25;;;1.20;;
55879;SDS011;41802;51.564;-1.838;2023-07-16T13:50:56;4.72;;;0.90;;
55879;SDS011;41802;51.564;-1.838;2023-07-16T13:53:24;5.83;;;1.10;;
55879;SDS011;41802;51.564;-1.838;2023-07-16T13:55:52;6.93;;;1.30;;
55879;SDS011;41802;51.564;-1.838;2023-07-16T13:58:20;4.38;;;1.27;;
55879;SDS011;41802;51.564;-1.838;2023-07-16T14:00:47;6.22;;;1.15;;
55879;SDS011;41802;51.564;-1.838;2023-07-16T14:03:15;5.65;;;1.55;;
55879;SDS011;41802;51.564;-1.838;2023-07-16T14:05:44;7.60;;;1.00;;
55879;SDS011;41802;51.564;-1.838;2023-07-16T14:08:12;5.70;;;1.10;;
55879;SDS011;41802;51.564;-1.838;2023-07-16T14:10:40;6.50;;;0.90;;
55879;SDS011;41802;51.564;-1.838;2023-07-16T14:13:09;6.05;;;1.10;;
55879;SDS011;41802;51.564;-1.838;2023-07-16T14:15:39;6.10;;;1.25;;
55879;SDS011;41802;51.564;-1.838;2023-07-16T14:18:06;5.63;;;1.13;;
55879;SDS011;41802;51.564;-1.838;2023-07-16T14:20:34;5.57;;;1.08;;
55879;SDS011;41802;51.564;-1.838;2023-07-16T14:23:03;4.95;;;1.25;;
55879;SDS011;41802;51.564;-1.838;2023-07-16T14:25:31;5.00;;;1.17;;
55879;SDS011;41802;51.564;-1.838;2023-07-16T14:28:02;5.97;;;1.50;;
55879;SDS011;41802;51.564;-1.838;2023-07-16T14:30:32;4.90;;;1.13;;
55879;SDS011;41802;51.564;-1.838;2023-07-16T14:33:00;5.07;;;1.00;;
55879;SDS011;41802;51.564;-1.838;2023-07-16T14:35:30;4.47;;;0.80;;
55879;SDS011;41802;51.564;-1.838;2023-07-16T14:38:04;4.68;;;0.60;;
55879;SDS011;41802;51.564;-1.838;2023-07-16T14:40:32;3.63;;;0.90;;
55879;SDS011;41802;51.564;-1.838;2023-07-16T14:43:00;5.83;;;1.10;;